AirNav   Air Wisconsin Up To $57,000 Bonus
 
 1343 users online  

28MO Pasley Airport
Roscoe, Missouri, USA

GOING TO ROSCOE?


FAA INFORMATION EFFECTIVE 01 DECEMBER 2022

Location

FAA Identifier: 28MO
Lat/Long: 37-58-26.1140N 093-49-07.7650W
37-58.435233N 093-49.129417W
37.9739206,-93.8188236
(estimated)
Elevation: 790 ft. / 241 m (estimated)
Variation: 04E (1985)
Time zone: UTC -6 (UTC -5 during Daylight Saving Time)
Zip code: 64776

Airport Operations

Airport use: Private use. Permission required prior to landing
Activation date: 04/1978
Control tower: no
ARTCC: KANSAS CITY CENTER
FSS: COLUMBIA FLIGHT SERVICE STATION
Attendance: UNATNDD
Wind indicator: yes
Segmented circle: no

Nearby radio navigation aids

VOR radial/distance  VOR name  Freq  Var
BUMr113/36.3BUTLER VORTAC115.9007E

Airport Services

Airframe service: NONE
Powerplant service: NONE

Runway Information

Runway 10/28

Dimensions: 3250 x 100 ft. / 991 x 30 m
Surface: turf
RUNWAY 10  RUNWAY 28
Traffic pattern: leftleft
Obstructions: none35 ft. pline, 250 ft. from runway
50' TREES NORTH.

Airport Ownership and Management from official FAA records

Ownership: Privately-owned
Owner: M. R. PASLEY
4752 BELINDER
SHAWNEE MISSION, KS 66205
Phone 913-831-2369
Manager: M.R. PASLEY
4752 BELINDER
SHAWNEE MISSION, KS 66205
Phone 913-831-2369

Additional Remarks

FOR CD CTC WHITEMAN APCH AT 660-687-3132. WHEN WHITEMAN APCH IS CLSD, CTC KANSAS CITY ARTCC AT 913-254-8508.

Instrument Procedures

There are no published instrument procedures at 28MO.

Some nearby airports with instrument procedures:

MO3 - Stockton Municipal Airport (19 nm S)
KGLY - Clinton Regional Airport (24 nm N)
KNVD - Nevada Municipal Airport (24 nm W)
KBUM - Butler Memorial Airport (31 nm NW)
KRAW - Warsaw Municipal Airport (32 nm NE)
 
Loc | Ops | Rwys | IFR | FBO | Links
Com | Nav | Svcs | Stats | Notes
Area around 28MO (Pasley Airport)
 
Road maps at: MapQuest Bing Google
 
Aerial photo
No photo
 
Sectional chart

 
Airport distance calculator
Flying to Pasley Airport? Find the distance to fly.

From to 28MO

Sunrise and sunset
Times for 02-Dec-2022
 Local
(UTC-6)
 Zulu
(UTC)
Morning civil twilight06:4512:45
Sunrise07:1413:14
Sunset16:5522:55
Evening civil twilight17:2423:24

Current date and time
Zulu (UTC)  02-Dec-2022 15:38:09
Local (UTC-6)  02-Dec-2022 09:38:09
 
METAR
KGLY 
24nm N 
021515Z AUTO 21017G28KT 10SM OVC024 12/06 A2986 RMK AO2
KRAW 
32nm NE 
021515Z AUTO 21016G22KT 10SM OVC025 10/01 A2988 RMK AO2
KLRY 
45nm NW 
021515Z AUTO 22024G32KT 10SM OVC024 11/05 A2984 RMK AO2
KFSK 
46nm W 
021515Z AUTO 20029G35KT 10SM OVC020 10/06 A2986 RMK AO2 T01040056
KSZL 
47nm N 
021455Z 20022G33KT 10SM BKN025 11/05 A2981 RMK AO2A PK WND 21034/55 SLP099 T01110048 57019 $
TAF
KSZL 
47nm N 
021249Z 0211/0317 19015G25KT 9999 BKN030 WS020/20045KT QNH2981INS BECMG 0213/0214 20020G30KT 9999 BKN025 QNH2964INS TEMPO 0214/0221 20025G35KT BECMG 0221/0222 21012G18KT 9999 BKN020 QNH2969INS BECMG 0301/0302 32020G30KT 9999 FEW030 510102 QNH3006INS TEMPO 0302/0308 32025G35KT BECMG 0308/0309 34010G20KT 9999 SKC QNH3024INS TX15/0221Z TNM04/0311Z
KSGF 
49nm SE 
021120Z 0212/0312 18018G25KT P6SM OVC023 WS020/22055KT FM021800 18026G39KT P6SM BKN018 WS020/22060KT FM030100 22022G30KT P6SM SCT018 FM030600 33016G22KT P6SM SCT250
NOTAMs
Click for the latest NOTAMs
NOTAMs are issued by the DoD/FAA and will open in a separate window not controlled by AirNav.

 

 
 

Would you like to see your business listed on this page?

 If your business provides an interesting product or service to pilots, flight crews, aircraft, or users of the Pasley Airport, you should consider listing it here.  To start the listing process, click on the button below
 
Add a business
 

Other Pages about Pasley Airport

Update a link
 
Copyright © AirNav, LLC. All rights reserved. Privacy Policy  Contact